sensor_id;sensor_type;location;lat;lon;timestamp;P1;durP1;ratioP1;P2;durP2;ratioP2
3287;SDS011;3260;52.438;13.502;2022-08-21T04:02:38;5.30;;;0.90;;
3287;SDS011;3260;52.438;13.502;2022-08-21T04:05:07;5.30;;;0.90;;
3287;SDS011;3260;52.438;13.502;2022-08-21T04:07:35;5.30;;;0.90;;
3287;SDS011;3260;52.438;13.502;2022-08-21T04:10:04;5.30;;;0.90;;
3287;SDS011;3260;52.438;13.502;2022-08-21T04:15:13;5.30;;;0.90;;
3287;SDS011;3260;52.438;13.502;2022-08-21T04:17:44;5.30;;;0.90;;
3287;SDS011;3260;52.438;13.502;2022-08-21T04:20:12;5.23;;;0.87;;
3287;SDS011;3260;52.438;13.502;2022-08-21T04:22:40;5.30;;;0.90;;
3287;SDS011;3260;52.438;13.502;2022-08-21T04:25:08;5.30;;;0.90;;
3287;SDS011;3260;52.438;13.502;2022-08-21T04:27:36;5.30;;;0.90;;
3287;SDS011;3260;52.438;13.502;2022-08-21T04:30:05;5.30;;;0.90;;
3287;SDS011;3260;52.438;13.502;2022-08-21T04:32:36;5.30;;;0.90;;
3287;SDS011;3260;52.438;13.502;2022-08-21T04:35:11;5.30;;;0.90;;
3287;SDS011;3260;52.438;13.502;2022-08-21T04:37:41;5.30;;;0.90;;
3287;SDS011;3260;52.438;13.502;2022-08-21T04:40:10;5.30;;;0.87;;
3287;SDS011;3260;52.438;13.502;2022-08-21T04:42:41;5.30;;;0.90;;
3287;SDS011;3260;52.438;13.502;2022-08-21T04:45:17;5.33;;;0.90;;
3287;SDS011;3260;52.438;13.502;2022-08-21T04:47:48;5.30;;;0.90;;
3287;SDS011;3260;52.438;13.502;2022-08-21T04:50:20;5.30;;;0.90;;
3287;SDS011;3260;52.438;13.502;2022-08-21T04:52:55;5.30;;;0.80;;
3287;SDS011;3260;52.438;13.502;2022-08-21T04:55:24;5.30;;;0.87;;
3287;SDS011;3260;52.438;13.502;2022-08-21T04:57:54;5.30;;;0.90;;
3287;SDS011;3260;52.438;13.502;2022-08-21T05:00:24;5.27;;;0.90;;
3287;SDS011;3260;52.438;13.502;2022-08-21T05:02:52;5.27;;;0.90;;
3287;SDS011;3260;52.438;13.502;2022-08-21T05:05:28;5.27;;;0.90;;
3287;SDS011;3260;52.438;13.502;2022-08-21T05:07:56;5.30;;;0.90;;
3287;SDS011;3260;52.438;13.502;2022-08-21T05:10:28;5.27;;;0.93;;
3287;SDS011;3260;52.438;13.502;2022-08-21T05:12:57;5.27;;;0.90;;
3287;SDS011;3260;52.438;13.502;2022-08-21T05:15:27;5.27;;;0.90;;
3287;SDS011;3260;52.438;13.502;2022-08-21T05:17:56;5.30;;;0.90;;
3287;SDS011;3260;52.438;13.502;2022-08-21T05:20:28;5.27;;;0.90;;
3287;SDS011;3260;52.438;13.502;2022-08-21T05:22:56;5.20;;;0.90;;
3287;SDS011;3260;52.438;13.502;2022-08-21T05:25:24;5.30;;;0.90;;
3287;SDS011;3260;52.438;13.502;2022-08-21T05:27:53;5.27;;;0.90;;
3287;SDS011;3260;52.438;13.502;2022-08-21T05:30:26;5.27;;;0.90;;
3287;SDS011;3260;52.438;13.502;2022-08-21T05:32:55;5.20;;;0.90;;
3287;SDS011;3260;52.438;13.502;2022-08-21T05:35:25;5.27;;;0.90;;
3287;SDS011;3260;52.438;13.502;2022-08-21T05:37:56;5.30;;;0.90;;
3287;SDS011;3260;52.438;13.502;2022-08-21T05:40:26;5.20;;;0.90;;
3287;SDS011;3260;52.438;13.502;2022-08-21T05:42:55;5.30;;;0.90;;
3287;SDS011;3260;52.438;13.502;2022-08-21T05:45:26;5.20;;;0.90;;
3287;SDS011;3260;52.438;13.502;2022-08-21T05:48:09;5.23;;;0.90;;
3287;SDS011;3260;52.438;13.502;2022-08-21T05:50:41;5.20;;;0.90;;
3287;SDS011;3260;52.438;13.502;2022-08-21T05:53:11;5.27;;;0.90;;
3287;SDS011;3260;52.438;13.502;2022-08-21T05:55:40;5.20;;;0.90;;
3287;SDS011;3260;52.438;13.502;2022-08-21T05:58:12;5.13;;;0.90;;
3287;SDS011;3260;52.438;13.502;2022-08-21T06:00:42;5.23;;;0.90;;
3287;SDS011;3260;52.438;13.502;2022-08-21T06:03:12;5.23;;;0.90;;
3287;SDS011;3260;52.438;13.502;2022-08-21T06:05:44;5.20;;;0.87;;
3287;SDS011;3260;52.438;13.502;2022-08-21T06:08:12;5.27;;;0.90;;
3287;SDS011;3260;52.438;13.502;2022-08-21T06:10:41;5.20;;;0.90;;
3287;SDS011;3260;52.438;13.502;2022-08-21T06:13:10;5.20;;;0.90;;
3287;SDS011;3260;52.438;13.502;2022-08-21T06:15:39;5.20;;;0.90;;
3287;SDS011;3260;52.438;13.502;2022-08-21T06:18:07;5.20;;;0.90;;
3287;SDS011;3260;52.438;13.502;2022-08-21T06:20:36;5.20;;;0.87;;
3287;SDS011;3260;52.438;13.502;2022-08-21T06:23:07;5.23;;;0.90;;
3287;SDS011;3260;52.438;13.502;2022-08-21T06:25:35;5.23;;;0.90;;
3287;SDS011;3260;52.438;13.502;2022-08-21T06:28:04;5.20;;;0.90;;
3287;SDS011;3260;52.438;13.502;2022-08-21T06:30:36;5.23;;;0.90;;
3287;SDS011;3260;52.438;13.502;2022-08-21T06:33:06;5.27;;;0.90;;
3287;SDS011;3260;52.438;13.502;2022-08-21T06:35:34;5.23;;;0.83;;
3287;SDS011;3260;52.438;13.502;2022-08-21T06:38:08;5.30;;;0.80;;
3287;SDS011;3260;52.438;13.502;2022-08-21T06:40:36;5.47;;;1.20;;
3287;SDS011;3260;52.438;13.502;2022-08-21T06:43:13;5.20;;;0.80;;
3287;SDS011;3260;52.438;13.502;2022-08-21T06:45:44;5.20;;;0.90;;
3287;SDS011;3260;52.438;13.502;2022-08-21T06:48:12;5.30;;;0.90;;
3287;SDS011;3260;52.438;13.502;2022-08-21T06:50:44;5.23;;;0.90;;
3287;SDS011;3260;52.438;13.502;2022-08-21T06:53:16;5.27;;;0.90;;
3287;SDS011;3260;52.438;13.502;2022-08-21T06:55:48;5.20;;;0.90;;
3287;SDS011;3260;52.438;13.502;2022-08-21T06:58:16;5.20;;;0.90;;
3287;SDS011;3260;52.438;13.502;2022-08-21T07:00:47;5.23;;;0.90;;
3287;SDS011;3260;52.438;13.502;2022-08-21T07:03:23;6.13;;;1.00;;
3287;SDS011;3260;52.438;13.502;2022-08-21T07:05:55;5.23;;;0.90;;
3287;SDS011;3260;52.438;13.502;2022-08-21T07:08:26;5.23;;;0.87;;
3287;SDS011;3260;52.438;13.502;2022-08-21T07:10:56;5.13;;;0.90;;
3287;SDS011;3260;52.438;13.502;2022-08-21T07:13:28;5.50;;;1.07;;
3287;SDS011;3260;52.438;13.502;2022-08-21T07:15:56;5.27;;;0.80;;
3287;SDS011;3260;52.438;13.502;2022-08-21T07:18:29;5.30;;;0.87;;
3287;SDS011;3260;52.438;13.502;2022-08-21T07:20:57;5.20;;;0.90;;
3287;SDS011;3260;52.438;13.502;2022-08-21T07:23:30;5.27;;;0.90;;
3287;SDS011;3260;52.438;13.502;2022-08-21T07:26:03;5.13;;;0.80;;
3287;SDS011;3260;52.438;13.502;2022-08-21T07:28:32;5.17;;;0.83;;
3287;SDS011;3260;52.438;13.502;2022-08-21T07:31:01;5.20;;;0.90;;
3287;SDS011;3260;52.438;13.502;2022-08-21T07:33:32;5.13;;;0.80;;
3287;SDS011;3260;52.438;13.502;2022-08-21T07:36:02;5.20;;;0.80;;
3287;SDS011;3260;52.438;13.502;2022-08-21T07:38:33;5.20;;;0.90;;
3287;SDS011;3260;52.438;13.502;2022-08-21T07:41:01;5.20;;;0.90;;
3287;SDS011;3260;52.438;13.502;2022-08-21T07:43:38;5.30;;;1.00;;
3287;SDS011;3260;52.438;13.502;2022-08-21T07:46:11;5.23;;;0.90;;
3287;SDS011;3260;52.438;13.502;2022-08-21T07:48:40;5.10;;;0.90;;
3287;SDS011;3260;52.438;13.502;2022-08-21T07:51:10;5.10;;;0.80;;
3287;SDS011;3260;52.438;13.502;2022-08-21T07:53:46;5.17;;;0.90;;
3287;SDS011;3260;52.438;13.502;2022-08-21T07:56:17;5.10;;;0.80;;
3287;SDS011;3260;52.438;13.502;2022-08-21T07:58:46;5.20;;;0.90;;
3287;SDS011;3260;52.438;13.502;2022-08-21T08:01:15;5.13;;;0.80;;
3287;SDS011;3260;52.438;13.502;2022-08-21T08:03:44;5.10;;;0.80;;
3287;SDS011;3260;52.438;13.502;2022-08-21T08:06:13;5.23;;;0.93;;
3287;SDS011;3260;52.438;13.502;2022-08-21T08:08:44;5.17;;;0.80;;
3287;SDS011;3260;52.438;13.502;2022-08-21T08:11:12;5.20;;;0.90;;
3287;SDS011;3260;52.438;13.502;2022-08-21T08:13:42;5.23;;;0.90;;
3287;SDS011;3260;52.438;13.502;2022-08-21T08:16:14;5.20;;;0.90;;
3287;SDS011;3260;52.438;13.502;2022-08-21T08:18:43;5.17;;;0.83;;
3287;SDS011;3260;52.438;13.502;2022-08-21T08:21:12;5.20;;;0.90;;
3287;SDS011;3260;52.438;13.502;2022-08-21T08:23:40;5.27;;;0.90;;
3287;SDS011;3260;52.438;13.502;2022-08-21T08:26:11;5.10;;;0.90;;
3287;SDS011;3260;52.438;13.502;2022-08-21T08:28:42;5.10;;;0.87;;
3287;SDS011;3260;52.438;13.502;2022-08-21T08:31:10;5.30;;;1.10;;
3287;SDS011;3260;52.438;13.502;2022-08-21T08:33:38;5.20;;;0.90;;
3287;SDS011;3260;52.438;13.502;2022-08-21T08:36:11;5.10;;;0.80;;
3287;SDS011;3260;52.438;13.502;2022-08-21T08:38:41;5.17;;;0.90;;
3287;SDS011;3260;52.438;13.502;2022-08-21T08:41:12;5.10;;;0.90;;
3287;SDS011;3260;52.438;13.502;2022-08-21T08:43:44;5.10;;;0.80;;
3287;SDS011;3260;52.438;13.502;2022-08-21T08:46:19;5.10;;;0.90;;
3287;SDS011;3260;52.438;13.502;2022-08-21T08:48:59;5.10;;;0.80;;
3287;SDS011;3260;52.438;13.502;2022-08-21T08:51:37;5.13;;;0.80;;
3287;SDS011;3260;52.438;13.502;2022-08-21T08:54:13;5.10;;;0.90;;
3287;SDS011;3260;52.438;13.502;2022-08-21T08:56:47;5.10;;;0.80;;
3287;SDS011;3260;52.438;13.502;2022-08-21T08:59:19;5.10;;;0.80;;
3287;SDS011;3260;52.438;13.502;2022-08-21T09:01:53;5.10;;;0.80;;
3287;SDS011;3260;52.438;13.502;2022-08-21T09:04:22;5.10;;;0.80;;
3287;SDS011;3260;52.438;13.502;2022-08-21T09:07:00;5.10;;;0.90;;
3287;SDS011;3260;52.438;13.502;2022-08-21T09:09:47;5.10;;;0.90;;
3287;SDS011;3260;52.438;13.502;2022-08-21T09:12:33;5.10;;;0.80;;
3287;SDS011;3260;52.438;13.502;2022-08-21T09:15:20;5.10;;;0.80;;
3287;SDS011;3260;52.438;13.502;2022-08-21T09:18:05;5.07;;;0.80;;
3287;SDS011;3260;52.438;13.502;2022-08-21T09:21:03;5.10;;;0.80;;
3287;SDS011;3260;52.438;13.502;2022-08-21T09:23:45;5.10;;;0.80;;
3287;SDS011;3260;52.438;13.502;2022-08-21T09:26:26;5.10;;;0.80;;
3287;SDS011;3260;52.438;13.502;2022-08-21T09:29:03;5.10;;;0.80;;
3287;SDS011;3260;52.438;13.502;2022-08-21T09:31:34;5.10;;;0.80;;
3287;SDS011;3260;52.438;13.502;2022-08-21T09:34:05;5.10;;;0.80;;
3287;SDS011;3260;52.438;13.502;2022-08-21T09:36:37;5.03;;;0.80;;
3287;SDS011;3260;52.438;13.502;2022-08-21T09:39:10;5.07;;;0.80;;
3287;SDS011;3260;52.438;13.502;2022-08-21T09:41:54;5.00;;;0.80;;
3287;SDS011;3260;52.438;13.502;2022-08-21T09:44:27;5.03;;;0.80;;
3287;SDS011;3260;52.438;13.502;2022-08-21T09:46:59;5.00;;;0.80;;
3287;SDS011;3260;52.438;13.502;2022-08-21T09:49:28;5.07;;;0.80;;
3287;SDS011;3260;52.438;13.502;2022-08-21T09:51:58;5.00;;;0.80;;
3287;SDS011;3260;52.438;13.502;2022-08-21T09:54:29;5.10;;;0.80;;
3287;SDS011;3260;52.438;13.502;2022-08-21T09:57:05;5.10;;;0.90;;
3287;SDS011;3260;52.438;13.502;2022-08-21T10:00:16;5.00;;;0.80;;
3287;SDS011;3260;52.438;13.502;2022-08-21T10:02:51;5.00;;;0.80;;
3287;SDS011;3260;52.438;13.502;2022-08-21T10:05:21;5.03;;;0.80;;
3287;SDS011;3260;52.438;13.502;2022-08-21T10:07:53;5.00;;;0.80;;
3287;SDS011;3260;52.438;13.502;2022-08-21T10:10:22;5.00;;;0.80;;
3287;SDS011;3260;52.438;13.502;2022-08-21T10:12:56;5.00;;;0.80;;
3287;SDS011;3260;52.438;13.502;2022-08-21T10:15:43;5.00;;;0.80;;
3287;SDS011;3260;52.438;13.502;2022-08-21T10:18:26;5.00;;;0.80;;
3287;SDS011;3260;52.438;13.502;2022-08-21T10:21:04;5.00;;;0.80;;
3287;SDS011;3260;52.438;13.502;2022-08-21T10:23:56;7.57;;;1.10;;
3287;SDS011;3260;52.438;13.502;2022-08-21T10:26:39;5.00;;;0.80;;
3287;SDS011;3260;52.438;13.502;2022-08-21T10:29:24;5.00;;;0.80;;
3287;SDS011;3260;52.438;13.502;2022-08-21T10:32:14;4.90;;;0.80;;
3287;SDS011;3260;52.438;13.502;2022-08-21T10:35:02;5.00;;;0.80;;
3287;SDS011;3260;52.438;13.502;2022-08-21T10:37:46;5.00;;;0.80;;
3287;SDS011;3260;52.438;13.502;2022-08-21T10:40:34;5.00;;;0.80;;
3287;SDS011;3260;52.438;13.502;2022-08-21T10:43:15;5.00;;;0.80;;
3287;SDS011;3260;52.438;13.502;2022-08-21T10:45:52;5.00;;;0.80;;
3287;SDS011;3260;52.438;13.502;2022-08-21T10:48:43;5.00;;;0.80;;
3287;SDS011;3260;52.438;13.502;2022-08-21T10:51:24;4.93;;;0.80;;
3287;SDS011;3260;52.438;13.502;2022-08-21T10:54:03;4.90;;;0.80;;
3287;SDS011;3260;52.438;13.502;2022-08-21T10:56:48;4.97;;;0.80;;
3287;SDS011;3260;52.438;13.502;2022-08-21T10:59:29;4.93;;;0.80;;
3287;SDS011;3260;52.438;13.502;2022-08-21T11:02:08;4.90;;;0.80;;
3287;SDS011;3260;52.438;13.502;2022-08-21T11:04:48;4.83;;;0.80;;
3287;SDS011;3260;52.438;13.502;2022-08-21T11:07:26;4.80;;;0.80;;
3287;SDS011;3260;52.438;13.502;2022-08-21T11:10:00;4.83;;;0.80;;
3287;SDS011;3260;52.438;13.502;2022-08-21T11:12:39;4.90;;;0.80;;
3287;SDS011;3260;52.438;13.502;2022-08-21T11:15:22;4.83;;;0.80;;
3287;SDS011;3260;52.438;13.502;2022-08-21T11:18:02;4.80;;;0.80;;
3287;SDS011;3260;52.438;13.502;2022-08-21T11:20:46;4.83;;;0.80;;
3287;SDS011;3260;52.438;13.502;2022-08-21T11:23:25;4.83;;;0.80;;
3287;SDS011;3260;52.438;13.502;2022-08-21T11:26:05;4.80;;;0.80;;
3287;SDS011;3260;52.438;13.502;2022-08-21T11:28:43;4.80;;;0.80;;
3287;SDS011;3260;52.438;13.502;2022-08-21T11:31:29;4.83;;;0.80;;
3287;SDS011;3260;52.438;13.502;2022-08-21T11:34:15;4.80;;;0.80;;
3287;SDS011;3260;52.438;13.502;2022-08-21T11:37:01;4.67;;;0.80;;
3287;SDS011;3260;52.438;13.502;2022-08-21T11:39:38;4.70;;;0.80;;
3287;SDS011;3260;52.438;13.502;2022-08-21T11:42:19;4.63;;;0.80;;
3287;SDS011;3260;52.438;13.502;2022-08-21T11:45:02;4.50;;;0.80;;
3287;SDS011;3260;52.438;13.502;2022-08-21T11:47:48;4.47;;;0.77;;
3287;SDS011;3260;52.438;13.502;2022-08-21T11:50:26;4.40;;;0.80;;
3287;SDS011;3260;52.438;13.502;2022-08-21T11:53:03;4.37;;;0.80;;
3287;SDS011;3260;52.438;13.502;2022-08-21T11:55:41;4.27;;;0.73;;
3287;SDS011;3260;52.438;13.502;2022-08-21T11:58:16;4.20;;;0.80;;
3287;SDS011;3260;52.438;13.502;2022-08-21T12:00:56;4.10;;;0.80;;
3287;SDS011;3260;52.438;13.502;2022-08-21T12:03:31;4.03;;;0.80;;
3287;SDS011;3260;52.438;13.502;2022-08-21T12:06:07;4.00;;;0.70;;
3287;SDS011;3260;52.438;13.502;2022-08-21T12:08:39;3.90;;;0.77;;
3287;SDS011;3260;52.438;13.502;2022-08-21T12:11:22;3.90;;;0.70;;
3287;SDS011;3260;52.438;13.502;2022-08-21T12:13:57;3.90;;;0.70;;
3287;SDS011;3260;52.438;13.502;2022-08-21T12:16:39;3.70;;;0.70;;
3287;SDS011;3260;52.438;13.502;2022-08-21T12:19:11;3.50;;;0.70;;
3287;SDS011;3260;52.438;13.502;2022-08-21T12:21:58;3.40;;;0.70;;
3287;SDS011;3260;52.438;13.502;2022-08-21T12:24:37;3.22;;;0.70;;
3287;SDS011;3260;52.438;13.502;2022-08-21T12:27:22;3.20;;;0.70;;
3287;SDS011;3260;52.438;13.502;2022-08-21T12:29:56;3.30;;;0.80;;
3287;SDS011;3260;52.438;13.502;2022-08-21T12:32:30;3.25;;;0.70;;
3287;SDS011;3260;52.438;13.502;2022-08-21T12:35:12;3.30;;;0.70;;
3287;SDS011;3260;52.438;13.502;2022-08-21T12:37:52;3.10;;;0.70;;
3287;SDS011;3260;52.438;13.502;2022-08-21T12:40:31;3.00;;;0.70;;
3287;SDS011;3260;52.438;13.502;2022-08-21T12:43:06;2.90;;;0.70;;
3287;SDS011;3260;52.438;13.502;2022-08-21T12:45:44;2.83;;;0.70;;
3287;SDS011;3260;52.438;13.502;2022-08-21T12:48:17;2.83;;;0.70;;
3287;SDS011;3260;52.438;13.502;2022-08-21T12:50:52;3.00;;;0.93;;
3287;SDS011;3260;52.438;13.502;2022-08-21T12:53:27;2.70;;;0.70;;
3287;SDS011;3260;52.438;13.502;2022-08-21T12:56:07;2.70;;;0.70;;
3287;SDS011;3260;52.438;13.502;2022-08-21T12:58:39;2.70;;;0.70;;
3287;SDS011;3260;52.438;13.502;2022-08-21T13:01:12;2.90;;;0.70;;
3287;SDS011;3260;52.438;13.502;2022-08-21T13:03:49;2.83;;;0.70;;
3287;SDS011;3260;52.438;13.502;2022-08-21T13:06:38;2.88;;;0.70;;
3287;SDS011;3260;52.438;13.502;2022-08-21T13:09:10;2.80;;;0.70;;
3287;SDS011;3260;52.438;13.502;2022-08-21T13:11:43;3.00;;;0.93;;
3287;SDS011;3260;52.438;13.502;2022-08-21T13:14:20;2.90;;;0.70;;
3287;SDS011;3260;52.438;13.502;2022-08-21T13:16:56;3.00;;;0.70;;
3287;SDS011;3260;52.438;13.502;2022-08-21T13:19:26;2.95;;;0.70;;
3287;SDS011;3260;52.438;13.502;2022-08-21T13:21:55;3.03;;;0.70;;
3287;SDS011;3260;52.438;13.502;2022-08-21T13:24:24;3.20;;;0.70;;
3287;SDS011;3260;52.438;13.502;2022-08-21T13:27:20;3.22;;;0.70;;
3287;SDS011;3260;52.438;13.502;2022-08-21T13:30:07;3.10;;;0.70;;
3287;SDS011;3260;52.438;13.502;2022-08-21T13:32:41;3.00;;;0.70;;
3287;SDS011;3260;52.438;13.502;2022-08-21T13:35:15;2.70;;;0.70;;
3287;SDS011;3260;52.438;13.502;2022-08-21T13:37:46;2.60;;;0.70;;
3287;SDS011;3260;52.438;13.502;2022-08-21T13:40:19;2.60;;;0.70;;
3287;SDS011;3260;52.438;13.502;2022-08-21T13:42:53;3.78;;;0.80;;
3287;SDS011;3260;52.438;13.502;2022-08-21T13:45:23;2.35;;;0.60;;
3287;SDS011;3260;52.438;13.502;2022-08-21T13:47:57;2.63;;;0.70;;
3287;SDS011;3260;52.438;13.502;2022-08-21T13:50:32;2.70;;;0.70;;
3287;SDS011;3260;52.438;13.502;2022-08-21T13:53:04;2.67;;;0.70;;
3287;SDS011;3260;52.438;13.502;2022-08-21T13:55:47;2.63;;;0.70;;
3287;SDS011;3260;52.438;13.502;2022-08-21T13:58:25;2.60;;;0.70;;
3287;SDS011;3260;52.438;13.502;2022-08-21T14:00:55;2.58;;;0.70;;
3287;SDS011;3260;52.438;13.502;2022-08-21T14:03:32;2.60;;;0.70;;
3287;SDS011;3260;52.438;13.502;2022-08-21T14:06:10;2.50;;;0.60;;
3287;SDS011;3260;52.438;13.502;2022-08-21T14:08:41;2.60;;;0.70;;
3287;SDS011;3260;52.438;13.502;2022-08-21T14:11:18;2.88;;;0.70;;
3287;SDS011;3260;52.438;13.502;2022-08-21T14:13:49;3.08;;;0.70;;
3287;SDS011;3260;52.438;13.502;2022-08-21T14:16:26;3.30;;;0.70;;
3287;SDS011;3260;52.438;13.502;2022-08-21T14:19:09;3.63;;;0.70;;
3287;SDS011;3260;52.438;13.502;2022-08-21T14:21:46;3.83;;;0.70;;
3287;SDS011;3260;52.438;13.502;2022-08-21T14:24:24;9.40;;;1.23;;
3287;SDS011;3260;52.438;13.502;2022-08-21T14:26:56;4.20;;;0.77;;
3287;SDS011;3260;52.438;13.502;2022-08-21T14:29:34;4.30;;;0.80;;
3287;SDS011;3260;52.438;13.502;2022-08-21T14:32:12;4.43;;;0.80;;
3287;SDS011;3260;52.438;13.502;2022-08-21T14:34:47;4.47;;;0.80;;
3287;SDS011;3260;52.438;13.502;2022-08-21T14:37:15;4.57;;;0.80;;
3287;SDS011;3260;52.438;13.502;2022-08-21T14:39:43;4.60;;;0.80;;
3287;SDS011;3260;52.438;13.502;2022-08-21T14:42:11;4.60;;;0.80;;
3287;SDS011;3260;52.438;13.502;2022-08-21T14:44:41;4.60;;;0.80;;
3287;SDS011;3260;52.438;13.502;2022-08-21T14:47:10;4.60;;;0.80;;
3287;SDS011;3260;52.438;13.502;2022-08-21T14:49:38;4.60;;;0.80;;
3287;SDS011;3260;52.438;13.502;2022-08-21T14:52:07;4.47;;;0.80;;
3287;SDS011;3260;52.438;13.502;2022-08-21T14:54:35;4.40;;;0.80;;
3287;SDS011;3260;52.438;13.502;2022-08-21T14:57:04;4.47;;;0.80;;
3287;SDS011;3260;52.438;13.502;2022-08-21T14:59:36;4.47;;;0.80;;
3287;SDS011;3260;52.438;13.502;2022-08-21T15:02:06;4.40;;;0.80;;
3287;SDS011;3260;52.438;13.502;2022-08-21T15:04:35;4.43;;;0.80;;
3287;SDS011;3260;52.438;13.502;2022-08-21T15:07:03;4.47;;;0.70;;
3287;SDS011;3260;52.438;13.502;2022-08-21T15:09:32;4.47;;;0.73;;
3287;SDS011;3260;52.438;13.502;2022-08-21T15:12:00;4.40;;;0.80;;
3287;SDS011;3260;52.438;13.502;2022-08-21T15:14:32;4.40;;;0.70;;
3287;SDS011;3260;52.438;13.502;2022-08-21T15:17:03;4.50;;;0.70;;
3287;SDS011;3260;52.438;13.502;2022-08-21T15:19:36;4.53;;;0.73;;
3287;SDS011;3260;52.438;13.502;2022-08-21T15:22:05;4.60;;;0.80;;
3287;SDS011;3260;52.438;13.502;2022-08-21T15:24:44;4.57;;;0.80;;
3287;SDS011;3260;52.438;13.502;2022-08-21T15:27:12;4.73;;;0.80;;
3287;SDS011;3260;52.438;13.502;2022-08-21T15:29:43;4.87;;;0.80;;
3287;SDS011;3260;52.438;13.502;2022-08-21T15:32:17;5.00;;;0.80;;
3287;SDS011;3260;52.438;13.502;2022-08-21T15:34:49;5.00;;;0.80;;
3287;SDS011;3260;52.438;13.502;2022-08-21T15:37:18;5.10;;;0.80;;
3287;SDS011;3260;52.438;13.502;2022-08-21T15:39:48;5.10;;;0.80;;
3287;SDS011;3260;52.438;13.502;2022-08-21T15:42:20;5.10;;;0.80;;
3287;SDS011;3260;52.438;13.502;2022-08-21T15:44:49;5.10;;;0.80;;
3287;SDS011;3260;52.438;13.502;2022-08-21T15:47:21;5.13;;;0.80;;
3287;SDS011;3260;52.438;13.502;2022-08-21T15:49:53;5.20;;;0.80;;
3287;SDS011;3260;52.438;13.502;2022-08-21T15:52:21;5.20;;;0.80;;
3287;SDS011;3260;52.438;13.502;2022-08-21T15:54:50;5.20;;;0.80;;
3287;SDS011;3260;52.438;13.502;2022-08-21T15:57:19;5.60;;;1.00;;
3287;SDS011;3260;52.438;13.502;2022-08-21T15:59:51;5.30;;;0.83;;
3287;SDS011;3260;52.438;13.502;2022-08-21T16:02:26;5.33;;;0.90;;
3287;SDS011;3260;52.438;13.502;2022-08-21T16:04:58;5.30;;;0.90;;
3287;SDS011;3260;52.438;13.502;2022-08-21T16:07:27;5.30;;;0.90;;
3287;SDS011;3260;52.438;13.502;2022-08-21T16:09:55;5.30;;;0.87;;
3287;SDS011;3260;52.438;13.502;2022-08-21T16:12:25;5.30;;;0.80;;
3287;SDS011;3260;52.438;13.502;2022-08-21T16:14:58;5.37;;;0.90;;
3287;SDS011;3260;52.438;13.502;2022-08-21T16:17:32;5.30;;;0.80;;
3287;SDS011;3260;52.438;13.502;2022-08-21T16:20:03;5.40;;;0.90;;
3287;SDS011;3260;52.438;13.502;2022-08-21T16:22:35;5.33;;;0.90;;
3287;SDS011;3260;52.438;13.502;2022-08-21T16:25:10;5.47;;;1.00;;
3287;SDS011;3260;52.438;13.502;2022-08-21T16:27:40;5.40;;;0.90;;
3287;SDS011;3260;52.438;13.502;2022-08-21T16:30:11;5.33;;;0.90;;
3287;SDS011;3260;52.438;13.502;2022-08-21T16:32:42;5.40;;;0.90;;
3287;SDS011;3260;52.438;13.502;2022-08-21T16:35:13;5.30;;;0.90;;
3287;SDS011;3260;52.438;13.502;2022-08-21T16:37:44;5.37;;;0.90;;
3287;SDS011;3260;52.438;13.502;2022-08-21T16:40:18;5.43;;;0.90;;
3287;SDS011;3260;52.438;13.502;2022-08-21T16:42:48;5.43;;;0.90;;
3287;SDS011;3260;52.438;13.502;2022-08-21T16:45:18;5.47;;;0.90;;
3287;SDS011;3260;52.438;13.502;2022-08-21T16:47:48;5.37;;;0.87;;
3287;SDS011;3260;52.438;13.502;2022-08-21T16:50:18;5.40;;;0.90;;
3287;SDS011;3260;52.438;13.502;2022-08-21T16:52:50;5.40;;;0.90;;
3287;SDS011;3260;52.438;13.502;2022-08-21T16:55:19;5.40;;;0.90;;
3287;SDS011;3260;52.438;13.502;2022-08-21T16:57:48;5.43;;;0.90;;
3287;SDS011;3260;52.438;13.502;2022-08-21T17:00:20;5.40;;;0.87;;
3287;SDS011;3260;52.438;13.502;2022-08-21T17:02:52;5.40;;;0.90;;
3287;SDS011;3260;52.438;13.502;2022-08-21T17:05:21;5.30;;;0.90;;
3287;SDS011;3260;52.438;13.502;2022-08-21T17:07:50;5.33;;;0.90;;
3287;SDS011;3260;52.438;13.502;2022-08-21T17:10:18;5.43;;;0.90;;
3287;SDS011;3260;52.438;13.502;2022-08-21T17:12:48;5.40;;;0.90;;
3287;SDS011;3260;52.438;13.502;2022-08-21T17:15:24;5.40;;;0.90;;
3287;SDS011;3260;52.438;13.502;2022-08-21T17:18:05;5.40;;;0.90;;
3287;SDS011;3260;52.438;13.502;2022-08-21T17:20:38;5.40;;;0.87;;
3287;SDS011;3260;52.438;13.502;2022-08-21T17:23:07;5.43;;;0.90;;
3287;SDS011;3260;52.438;13.502;2022-08-21T17:25:36;5.43;;;0.80;;
3287;SDS011;3260;52.438;13.502;2022-08-21T17:28:07;5.50;;;0.90;;
3287;SDS011;3260;52.438;13.502;2022-08-21T17:30:40;5.40;;;0.90;;
3287;SDS011;3260;52.438;13.502;2022-08-21T17:33:13;5.43;;;0.90;;
3287;SDS011;3260;52.438;13.502;2022-08-21T17:35:44;5.37;;;0.90;;
3287;SDS011;3260;52.438;13.502;2022-08-21T17:38:12;5.40;;;0.90;;
3287;SDS011;3260;52.438;13.502;2022-08-21T17:40:41;5.40;;;0.90;;
3287;SDS011;3260;52.438;13.502;2022-08-21T17:43:10;5.40;;;0.90;;
3287;SDS011;3260;52.438;13.502;2022-08-21T17:45:40;5.40;;;0.90;;
3287;SDS011;3260;52.438;13.502;2022-08-21T17:48:09;5.43;;;0.90;;
3287;SDS011;3260;52.438;13.502;2022-08-21T17:50:39;5.37;;;0.90;;
3287;SDS011;3260;52.438;13.502;2022-08-21T17:53:07;5.40;;;0.90;;
3287;SDS011;3260;52.438;13.502;2022-08-21T17:55:36;5.47;;;0.90;;
3287;SDS011;3260;52.438;13.502;2022-08-21T17:58:04;5.40;;;0.90;;
3287;SDS011;3260;52.438;13.502;2022-08-21T18:00:34;5.47;;;0.90;;
3287;SDS011;3260;52.438;13.502;2022-08-21T18:03:04;5.47;;;0.90;;
3287;SDS011;3260;52.438;13.502;2022-08-21T18:05:41;5.40;;;0.90;;
3287;SDS011;3260;52.438;13.502;2022-08-21T18:08:10;5.50;;;0.90;;
3287;SDS011;3260;52.438;13.502;2022-08-21T18:10:39;5.53;;;0.90;;
3287;SDS011;3260;52.438;13.502;2022-08-21T18:13:12;5.53;;;0.90;;
3287;SDS011;3260;52.438;13.502;2022-08-21T18:15:45;5.60;;;0.90;;
3287;SDS011;3260;52.438;13.502;2022-08-21T18:18:17;5.53;;;0.90;;
3287;SDS011;3260;52.438;13.502;2022-08-21T18:20:48;5.50;;;0.90;;
3287;SDS011;3260;52.438;13.502;2022-08-21T18:23:18;5.63;;;0.90;;
3287;SDS011;3260;52.438;13.502;2022-08-21T18:26:06;5.63;;;0.90;;
3287;SDS011;3260;52.438;13.502;2022-08-21T18:28:35;5.67;;;0.90;;
3287;SDS011;3260;52.438;13.502;2022-08-21T18:31:06;5.63;;;0.90;;
3287;SDS011;3260;52.438;13.502;2022-08-21T18:33:36;5.70;;;0.90;;
3287;SDS011;3260;52.438;13.502;2022-08-21T18:36:25;5.63;;;0.90;;
3287;SDS011;3260;52.438;13.502;2022-08-21T18:38:54;5.63;;;0.90;;
3287;SDS011;3260;52.438;13.502;2022-08-21T18:41:43;5.60;;;0.90;;
3287;SDS011;3260;52.438;13.502;2022-08-21T18:44:13;5.63;;;0.90;;
3287;SDS011;3260;52.438;13.502;2022-08-21T18:46:45;5.67;;;0.90;;
3287;SDS011;3260;52.438;13.502;2022-08-21T18:49:18;5.67;;;0.90;;
3287;SDS011;3260;52.438;13.502;2022-08-21T18:51:48;5.67;;;0.90;;
3287;SDS011;3260;52.438;13.502;2022-08-21T18:54:17;5.63;;;0.90;;
3287;SDS011;3260;52.438;13.502;2022-08-21T18:56:46;5.60;;;0.90;;
3287;SDS011;3260;52.438;13.502;2022-08-21T18:59:19;5.67;;;0.90;;
3287;SDS011;3260;52.438;13.502;2022-08-21T19:01:49;5.60;;;0.90;;
3287;SDS011;3260;52.438;13.502;2022-08-21T19:04:18;5.63;;;0.90;;
3287;SDS011;3260;52.438;13.502;2022-08-21T19:07:08;5.53;;;0.90;;
3287;SDS011;3260;52.438;13.502;2022-08-21T19:09:39;5.70;;;0.90;;
3287;SDS011;3260;52.438;13.502;2022-08-21T19:12:27;5.60;;;0.90;;
3287;SDS011;3260;52.438;13.502;2022-08-21T19:14:56;5.67;;;0.90;;
3287;SDS011;3260;52.438;13.502;2022-08-21T19:17:25;5.70;;;0.90;;
3287;SDS011;3260;52.438;13.502;2022-08-21T19:19:54;5.67;;;0.90;;
3287;SDS011;3260;52.438;13.502;2022-08-21T19:22:30;5.50;;;0.90;;
3287;SDS011;3260;52.438;13.502;2022-08-21T19:24:58;5.67;;;0.90;;
3287;SDS011;3260;52.438;13.502;2022-08-21T19:27:27;5.57;;;0.90;;
3287;SDS011;3260;52.438;13.502;2022-08-21T19:29:55;5.60;;;0.90;;
3287;SDS011;3260;52.438;13.502;2022-08-21T19:32:24;5.60;;;0.90;;
3287;SDS011;3260;52.438;13.502;2022-08-21T19:34:53;5.60;;;0.90;;
3287;SDS011;3260;52.438;13.502;2022-08-21T19:37:23;5.53;;;0.90;;
3287;SDS011;3260;52.438;13.502;2022-08-21T19:39:54;5.60;;;0.90;;
3287;SDS011;3260;52.438;13.502;2022-08-21T19:42:22;5.60;;;0.90;;